sensor_id;sensor_type;location;lat;lon;timestamp;P1;durP1;ratioP1;P2;durP2;ratioP2
34098;SDS011;20374;49.474;10.944;2024-03-25T00:01:15;2.60;;;2.40;;
34098;SDS011;20374;49.474;10.944;2024-03-25T00:03:41;2.70;;;2.15;;
34098;SDS011;20374;49.474;10.944;2024-03-25T00:06:07;3.10;;;2.80;;
34098;SDS011;20374;49.474;10.944;2024-03-25T00:08:33;2.93;;;2.73;;
34098;SDS011;20374;49.474;10.944;2024-03-25T00:10:59;3.13;;;2.92;;
34098;SDS011;20374;49.474;10.944;2024-03-25T00:13:24;2.47;;;2.28;;
34098;SDS011;20374;49.474;10.944;2024-03-25T00:15:50;3.10;;;2.90;;
34098;SDS011;20374;49.474;10.944;2024-03-25T00:18:16;2.85;;;2.65;;
34098;SDS011;20374;49.474;10.944;2024-03-25T00:20:42;2.85;;;2.65;;
34098;SDS011;20374;49.474;10.944;2024-03-25T00:23:09;3.17;;;2.83;;
34098;SDS011;20374;49.474;10.944;2024-03-25T00:25:35;2.57;;;2.37;;
34098;SDS011;20374;49.474;10.944;2024-03-25T00:28:01;3.38;;;3.08;;
34098;SDS011;20374;49.474;10.944;2024-03-25T00:30:27;2.80;;;2.60;;
34098;SDS011;20374;49.474;10.944;2024-03-25T00:32:53;2.97;;;2.77;;
34098;SDS011;20374;49.474;10.944;2024-03-25T00:35:18;2.90;;;2.70;;
34098;SDS011;20374;49.474;10.944;2024-03-25T00:37:44;3.33;;;3.03;;
34098;SDS011;20374;49.474;10.944;2024-03-25T00:40:10;2.83;;;2.63;;
34098;SDS011;20374;49.474;10.944;2024-03-25T00:42:37;3.38;;;3.17;;
34098;SDS011;20374;49.474;10.944;2024-03-25T00:45:03;3.28;;;3.08;;
34098;SDS011;20374;49.474;10.944;2024-03-25T00:47:31;5.33;;;3.50;;
34098;SDS011;20374;49.474;10.944;2024-03-25T00:49:57;3.13;;;2.83;;
34098;SDS011;20374;49.474;10.944;2024-03-25T00:52:23;4.05;;;3.67;;
34098;SDS011;20374;49.474;10.944;2024-03-25T00:54:49;3.08;;;2.78;;
34098;SDS011;20374;49.474;10.944;2024-03-25T00:57:15;3.22;;;2.92;;
34098;SDS011;20374;49.474;10.944;2024-03-25T00:59:41;2.53;;;2.33;;
34098;SDS011;20374;49.474;10.944;2024-03-25T01:02:06;2.87;;;2.67;;
34098;SDS011;20374;49.474;10.944;2024-03-25T01:04:33;3.03;;;2.83;;
34098;SDS011;20374;49.474;10.944;2024-03-25T01:06:59;3.30;;;3.10;;
34098;SDS011;20374;49.474;10.944;2024-03-25T01:09:25;3.15;;;2.85;;
34098;SDS011;20374;49.474;10.944;2024-03-25T01:11:51;3.10;;;2.90;;
34098;SDS011;20374;49.474;10.944;2024-03-25T01:14:17;2.63;;;2.42;;
34098;SDS011;20374;49.474;10.944;2024-03-25T01:16:43;5.80;;;3.70;;
34098;SDS011;20374;49.474;10.944;2024-03-25T01:19:09;3.03;;;2.83;;
34098;SDS011;20374;49.474;10.944;2024-03-25T01:21:34;4.30;;;3.90;;
34098;SDS011;20374;49.474;10.944;2024-03-25T01:24:00;3.63;;;3.33;;
34098;SDS011;20374;49.474;10.944;2024-03-25T01:26:27;3.25;;;2.38;;
34098;SDS011;20374;49.474;10.944;2024-03-25T01:28:54;2.78;;;2.58;;
34098;SDS011;20374;49.474;10.944;2024-03-25T01:31:19;3.67;;;3.33;;
34098;SDS011;20374;49.474;10.944;2024-03-25T01:33:45;2.50;;;2.30;;
34098;SDS011;20374;49.474;10.944;2024-03-25T01:36:11;2.92;;;2.72;;
34098;SDS011;20374;49.474;10.944;2024-03-25T01:38:43;3.28;;;2.97;;
34098;SDS011;20374;49.474;10.944;2024-03-25T01:41:09;2.83;;;2.63;;
34098;SDS011;20374;49.474;10.944;2024-03-25T01:43:36;3.38;;;3.13;;
34098;SDS011;20374;49.474;10.944;2024-03-25T01:46:02;3.72;;;3.35;;
34098;SDS011;20374;49.474;10.944;2024-03-25T01:48:29;3.95;;;2.67;;
34098;SDS011;20374;49.474;10.944;2024-03-25T01:50:55;3.87;;;3.50;;
34098;SDS011;20374;49.474;10.944;2024-03-25T01:53:23;2.78;;;2.58;;
34098;SDS011;20374;49.474;10.944;2024-03-25T01:55:51;3.08;;;2.88;;
34098;SDS011;20374;49.474;10.944;2024-03-25T01:58:20;3.30;;;3.10;;
34098;SDS011;20374;49.474;10.944;2024-03-25T02:00:46;3.38;;;3.17;;
34098;SDS011;20374;49.474;10.944;2024-03-25T02:03:13;2.80;;;2.60;;
34098;SDS011;20374;49.474;10.944;2024-03-25T02:05:39;2.60;;;2.40;;
34098;SDS011;20374;49.474;10.944;2024-03-25T02:08:05;2.88;;;2.67;;
34098;SDS011;20374;49.474;10.944;2024-03-25T02:10:32;2.80;;;2.60;;
34098;SDS011;20374;49.474;10.944;2024-03-25T02:12:58;3.42;;;3.20;;
34098;SDS011;20374;49.474;10.944;2024-03-25T02:15:24;3.60;;;3.23;;
34098;SDS011;20374;49.474;10.944;2024-03-25T02:17:52;3.13;;;2.92;;
34098;SDS011;20374;49.474;10.944;2024-03-25T02:20:18;3.83;;;3.53;;
34098;SDS011;20374;49.474;10.944;2024-03-25T02:22:44;2.58;;;2.38;;
34098;SDS011;20374;49.474;10.944;2024-03-25T02:25:10;3.25;;;2.95;;
34098;SDS011;20374;49.474;10.944;2024-03-25T02:27:36;2.27;;;2.07;;
34098;SDS011;20374;49.474;10.944;2024-03-25T02:30:06;3.28;;;2.97;;
34098;SDS011;20374;49.474;10.944;2024-03-25T02:32:34;2.85;;;2.65;;
34098;SDS011;20374;49.474;10.944;2024-03-25T02:37:54;3.33;;;3.03;;
34098;SDS011;20374;49.474;10.944;2024-03-25T02:40:20;2.43;;;2.23;;
34098;SDS011;20374;49.474;10.944;2024-03-25T02:42:47;2.85;;;2.55;;
34098;SDS011;20374;49.474;10.944;2024-03-25T02:45:14;3.55;;;3.30;;
34098;SDS011;20374;49.474;10.944;2024-03-25T02:47:40;3.30;;;3.00;;
34098;SDS011;20374;49.474;10.944;2024-03-25T02:50:06;2.60;;;2.40;;
34098;SDS011;20374;49.474;10.944;2024-03-25T02:52:32;3.35;;;3.15;;
34098;SDS011;20374;49.474;10.944;2024-03-25T02:54:57;3.58;;;3.30;;
34098;SDS011;20374;49.474;10.944;2024-03-25T02:57:23;3.03;;;2.57;;
34098;SDS011;20374;49.474;10.944;2024-03-25T02:59:49;2.05;;;1.85;;
34098;SDS011;20374;49.474;10.944;2024-03-25T03:02:15;3.47;;;3.20;;
34098;SDS011;20374;49.474;10.944;2024-03-25T03:04:41;3.43;;;3.23;;
34098;SDS011;20374;49.474;10.944;2024-03-25T03:07:07;3.17;;;2.97;;
34098;SDS011;20374;49.474;10.944;2024-03-25T03:09:33;2.78;;;2.58;;
34098;SDS011;20374;49.474;10.944;2024-03-25T03:11:58;2.73;;;2.10;;
34098;SDS011;20374;49.474;10.944;2024-03-25T03:14:24;2.83;;;2.35;;
34098;SDS011;20374;49.474;10.944;2024-03-25T03:16:50;2.55;;;2.35;;
34098;SDS011;20374;49.474;10.944;2024-03-25T03:19:24;3.17;;;2.87;;
34098;SDS011;20374;49.474;10.944;2024-03-25T03:21:52;2.35;;;2.13;;
34098;SDS011;20374;49.474;10.944;2024-03-25T03:24:18;2.78;;;2.58;;
34098;SDS011;20374;49.474;10.944;2024-03-25T03:26:44;2.80;;;2.60;;
34098;SDS011;20374;49.474;10.944;2024-03-25T03:29:10;2.87;;;2.67;;
34098;SDS011;20374;49.474;10.944;2024-03-25T03:31:36;3.22;;;2.92;;
34098;SDS011;20374;49.474;10.944;2024-03-25T03:34:02;2.80;;;2.60;;
34098;SDS011;20374;49.474;10.944;2024-03-25T03:36:28;3.60;;;3.30;;
34098;SDS011;20374;49.474;10.944;2024-03-25T03:38:54;2.83;;;2.63;;
34098;SDS011;20374;49.474;10.944;2024-03-25T03:41:20;7.40;;;2.95;;
34098;SDS011;20374;49.474;10.944;2024-03-25T03:43:46;3.55;;;3.33;;
34098;SDS011;20374;49.474;10.944;2024-03-25T03:46:12;3.33;;;3.13;;
34098;SDS011;20374;49.474;10.944;2024-03-25T03:48:38;2.70;;;2.50;;
34098;SDS011;20374;49.474;10.944;2024-03-25T03:51:04;2.80;;;2.60;;
34098;SDS011;20374;49.474;10.944;2024-03-25T03:53:32;2.80;;;2.50;;
34098;SDS011;20374;49.474;10.944;2024-03-25T03:55:59;3.13;;;2.90;;
34098;SDS011;20374;49.474;10.944;2024-03-25T03:58:32;5.35;;;4.43;;
34098;SDS011;20374;49.474;10.944;2024-03-25T04:00:58;4.35;;;3.05;;
34098;SDS011;20374;49.474;10.944;2024-03-25T04:03:24;3.22;;;2.95;;
34098;SDS011;20374;49.474;10.944;2024-03-25T04:05:51;3.30;;;3.03;;
34098;SDS011;20374;49.474;10.944;2024-03-25T04:08:16;3.90;;;3.60;;
34098;SDS011;20374;49.474;10.944;2024-03-25T04:10:43;3.90;;;3.60;;
34098;SDS011;20374;49.474;10.944;2024-03-25T04:13:10;3.35;;;3.15;;
34098;SDS011;20374;49.474;10.944;2024-03-25T04:15:38;2.97;;;2.78;;
34098;SDS011;20374;49.474;10.944;2024-03-25T04:18:05;3.60;;;3.30;;
34098;SDS011;20374;49.474;10.944;2024-03-25T04:20:38;3.43;;;3.13;;
34098;SDS011;20374;49.474;10.944;2024-03-25T04:23:05;3.15;;;2.92;;
34098;SDS011;20374;49.474;10.944;2024-03-25T04:25:32;3.33;;;3.13;;
34098;SDS011;20374;49.474;10.944;2024-03-25T04:27:59;3.72;;;3.42;;
34098;SDS011;20374;49.474;10.944;2024-03-25T04:30:25;4.20;;;2.97;;
34098;SDS011;20374;49.474;10.944;2024-03-25T04:32:51;2.90;;;2.70;;
34098;SDS011;20374;49.474;10.944;2024-03-25T04:35:17;2.70;;;2.50;;
34098;SDS011;20374;49.474;10.944;2024-03-25T04:37:42;3.70;;;3.40;;
34098;SDS011;20374;49.474;10.944;2024-03-25T04:40:09;3.83;;;3.42;;
34098;SDS011;20374;49.474;10.944;2024-03-25T04:42:35;4.22;;;3.92;;
34098;SDS011;20374;49.474;10.944;2024-03-25T04:45:01;2.85;;;2.65;;
34098;SDS011;20374;49.474;10.944;2024-03-25T04:47:27;3.60;;;3.25;;
34098;SDS011;20374;49.474;10.944;2024-03-25T04:49:53;3.10;;;2.90;;
34098;SDS011;20374;49.474;10.944;2024-03-25T04:52:19;3.17;;;2.90;;
34098;SDS011;20374;49.474;10.944;2024-03-25T04:54:48;2.63;;;2.42;;
34098;SDS011;20374;49.474;10.944;2024-03-25T04:57:14;3.17;;;2.90;;
34098;SDS011;20374;49.474;10.944;2024-03-25T04:59:40;3.00;;;2.80;;
34098;SDS011;20374;49.474;10.944;2024-03-25T05:02:06;2.73;;;2.53;;
34098;SDS011;20374;49.474;10.944;2024-03-25T05:04:32;3.85;;;3.55;;
34098;SDS011;20374;49.474;10.944;2024-03-25T05:06:58;3.72;;;3.30;;
34098;SDS011;20374;49.474;10.944;2024-03-25T05:09:24;3.70;;;2.58;;
34098;SDS011;20374;49.474;10.944;2024-03-25T05:11:50;3.23;;;2.93;;
34098;SDS011;20374;49.474;10.944;2024-03-25T05:14:16;3.63;;;3.42;;
34098;SDS011;20374;49.474;10.944;2024-03-25T05:16:42;3.47;;;3.17;;
34098;SDS011;20374;49.474;10.944;2024-03-25T05:19:07;5.05;;;3.00;;
34098;SDS011;20374;49.474;10.944;2024-03-25T05:21:34;3.08;;;2.88;;
34098;SDS011;20374;49.474;10.944;2024-03-25T05:23:59;2.70;;;2.50;;
34098;SDS011;20374;49.474;10.944;2024-03-25T05:26:26;3.03;;;2.75;;
34098;SDS011;20374;49.474;10.944;2024-03-25T05:28:52;2.80;;;2.60;;
34098;SDS011;20374;49.474;10.944;2024-03-25T05:31:18;3.28;;;2.97;;
34098;SDS011;20374;49.474;10.944;2024-03-25T05:33:44;3.80;;;3.50;;
34098;SDS011;20374;49.474;10.944;2024-03-25T05:36:12;2.80;;;2.60;;
34098;SDS011;20374;49.474;10.944;2024-03-25T05:38:38;3.70;;;3.33;;
34098;SDS011;20374;49.474;10.944;2024-03-25T05:41:04;3.80;;;3.53;;
34098;SDS011;20374;49.474;10.944;2024-03-25T05:43:30;4.10;;;3.70;;
34098;SDS011;20374;49.474;10.944;2024-03-25T05:45:57;3.05;;;2.80;;
34098;SDS011;20374;49.474;10.944;2024-03-25T05:48:26;3.08;;;2.88;;
34098;SDS011;20374;49.474;10.944;2024-03-25T05:53:31;3.22;;;2.20;;
34098;SDS011;20374;49.474;10.944;2024-03-25T05:55:57;5.57;;;2.85;;
34098;SDS011;20374;49.474;10.944;2024-03-25T05:58:26;4.15;;;3.63;;
34098;SDS011;20374;49.474;10.944;2024-03-25T06:00:52;3.83;;;3.53;;
34098;SDS011;20374;49.474;10.944;2024-03-25T06:03:18;3.23;;;3.03;;
34098;SDS011;20374;49.474;10.944;2024-03-25T06:05:44;3.92;;;3.50;;
34098;SDS011;20374;49.474;10.944;2024-03-25T06:08:10;3.20;;;3.00;;
34098;SDS011;20374;49.474;10.944;2024-03-25T06:10:49;2.92;;;2.72;;
34098;SDS011;20374;49.474;10.944;2024-03-25T06:13:18;3.88;;;3.58;;
34098;SDS011;20374;49.474;10.944;2024-03-25T06:15:45;3.33;;;3.03;;
34098;SDS011;20374;49.474;10.944;2024-03-25T06:18:11;3.30;;;3.10;;
34098;SDS011;20374;49.474;10.944;2024-03-25T06:20:37;5.97;;;3.80;;
34098;SDS011;20374;49.474;10.944;2024-03-25T06:23:03;3.05;;;2.85;;
34098;SDS011;20374;49.474;10.944;2024-03-25T06:25:30;2.97;;;2.72;;
34098;SDS011;20374;49.474;10.944;2024-03-25T06:27:55;4.50;;;4.20;;
34098;SDS011;20374;49.474;10.944;2024-03-25T06:30:21;2.63;;;2.42;;
34098;SDS011;20374;49.474;10.944;2024-03-25T06:33:06;4.20;;;3.90;;
34098;SDS011;20374;49.474;10.944;2024-03-25T06:35:50;2.95;;;2.75;;
34098;SDS011;20374;49.474;10.944;2024-03-25T06:38:17;3.97;;;3.67;;
34098;SDS011;20374;49.474;10.944;2024-03-25T06:40:44;5.45;;;5.15;;
34098;SDS011;20374;49.474;10.944;2024-03-25T06:43:11;4.05;;;3.75;;
34098;SDS011;20374;49.474;10.944;2024-03-25T06:45:37;3.85;;;3.42;;
34098;SDS011;20374;49.474;10.944;2024-03-25T06:48:02;3.60;;;3.30;;
34098;SDS011;20374;49.474;10.944;2024-03-25T06:50:29;2.90;;;2.65;;
34098;SDS011;20374;49.474;10.944;2024-03-25T06:52:55;3.40;;;3.13;;
34098;SDS011;20374;49.474;10.944;2024-03-25T06:55:21;2.92;;;2.72;;
34098;SDS011;20374;49.474;10.944;2024-03-25T06:57:50;3.03;;;2.83;;
34098;SDS011;20374;49.474;10.944;2024-03-25T07:00:16;3.03;;;2.78;;
34098;SDS011;20374;49.474;10.944;2024-03-25T07:02:42;3.90;;;3.65;;
34098;SDS011;20374;49.474;10.944;2024-03-25T07:05:08;3.08;;;2.72;;
34098;SDS011;20374;49.474;10.944;2024-03-25T07:07:34;2.70;;;2.50;;
34098;SDS011;20374;49.474;10.944;2024-03-25T07:10:00;3.25;;;3.05;;
34098;SDS011;20374;49.474;10.944;2024-03-25T07:12:26;3.22;;;2.95;;
34098;SDS011;20374;49.474;10.944;2024-03-25T07:14:53;3.97;;;3.67;;
34098;SDS011;20374;49.474;10.944;2024-03-25T07:17:19;3.13;;;2.92;;
34098;SDS011;20374;49.474;10.944;2024-03-25T07:19:47;3.15;;;2.92;;
34098;SDS011;20374;49.474;10.944;2024-03-25T07:22:13;3.08;;;2.78;;
34098;SDS011;20374;49.474;10.944;2024-03-25T07:24:39;2.70;;;2.50;;
34098;SDS011;20374;49.474;10.944;2024-03-25T07:27:05;2.70;;;2.50;;
34098;SDS011;20374;49.474;10.944;2024-03-25T07:29:32;4.10;;;3.75;;
34098;SDS011;20374;49.474;10.944;2024-03-25T07:31:58;3.45;;;3.25;;
34098;SDS011;20374;49.474;10.944;2024-03-25T07:34:25;3.43;;;3.13;;
34098;SDS011;20374;49.474;10.944;2024-03-25T07:36:51;3.10;;;2.90;;
34098;SDS011;20374;49.474;10.944;2024-03-25T07:39:17;2.92;;;2.72;;
34098;SDS011;20374;49.474;10.944;2024-03-25T07:41:43;3.78;;;3.58;;
34098;SDS011;20374;49.474;10.944;2024-03-25T07:44:09;3.77;;;3.47;;
34098;SDS011;20374;49.474;10.944;2024-03-25T07:46:35;3.53;;;3.30;;
34098;SDS011;20374;49.474;10.944;2024-03-25T07:49:01;3.40;;;3.10;;
34098;SDS011;20374;49.474;10.944;2024-03-25T07:51:27;3.35;;;3.05;;
34098;SDS011;20374;49.474;10.944;2024-03-25T07:53:52;3.65;;;3.38;;
34098;SDS011;20374;49.474;10.944;2024-03-25T07:56:20;5.07;;;3.40;;
34098;SDS011;20374;49.474;10.944;2024-03-25T07:58:46;3.30;;;3.10;;
34098;SDS011;20374;49.474;10.944;2024-03-25T08:01:12;6.88;;;3.40;;
34098;SDS011;20374;49.474;10.944;2024-03-25T08:03:37;3.50;;;3.20;;
34098;SDS011;20374;49.474;10.944;2024-03-25T08:06:03;3.10;;;2.90;;
34098;SDS011;20374;49.474;10.944;2024-03-25T08:08:29;3.85;;;3.55;;
34098;SDS011;20374;49.474;10.944;2024-03-25T08:10:55;4.13;;;3.50;;
34098;SDS011;20374;49.474;10.944;2024-03-25T08:13:21;3.20;;;3.00;;
34098;SDS011;20374;49.474;10.944;2024-03-25T08:15:47;4.00;;;3.80;;
34098;SDS011;20374;49.474;10.944;2024-03-25T08:18:13;3.58;;;3.20;;
34098;SDS011;20374;49.474;10.944;2024-03-25T08:20:39;3.70;;;3.40;;
34098;SDS011;20374;49.474;10.944;2024-03-25T08:23:05;3.08;;;2.88;;
34098;SDS011;20374;49.474;10.944;2024-03-25T08:25:32;3.10;;;2.85;;
34098;SDS011;20374;49.474;10.944;2024-03-25T08:27:58;3.72;;;3.53;;
34098;SDS011;20374;49.474;10.944;2024-03-25T08:30:25;3.85;;;3.50;;
34098;SDS011;20374;49.474;10.944;2024-03-25T08:32:50;3.80;;;3.60;;
34098;SDS011;20374;49.474;10.944;2024-03-25T08:35:17;3.95;;;3.70;;
34098;SDS011;20374;49.474;10.944;2024-03-25T08:37:42;3.58;;;3.38;;
34098;SDS011;20374;49.474;10.944;2024-03-25T08:40:09;5.22;;;3.40;;
34098;SDS011;20374;49.474;10.944;2024-03-25T08:42:35;3.35;;;3.15;;
34098;SDS011;20374;49.474;10.944;2024-03-25T08:45:01;4.22;;;2.88;;
34098;SDS011;20374;49.474;10.944;2024-03-25T08:47:27;3.70;;;3.45;;
34098;SDS011;20374;49.474;10.944;2024-03-25T08:49:53;3.70;;;3.50;;
34098;SDS011;20374;49.474;10.944;2024-03-25T08:52:18;3.67;;;3.47;;
34098;SDS011;20374;49.474;10.944;2024-03-25T08:54:44;3.92;;;3.63;;
34098;SDS011;20374;49.474;10.944;2024-03-25T08:57:10;3.37;;;3.17;;
34098;SDS011;20374;49.474;10.944;2024-03-25T08:59:36;3.97;;;3.67;;
34098;SDS011;20374;49.474;10.944;2024-03-25T09:02:02;3.20;;;3.00;;
34098;SDS011;20374;49.474;10.944;2024-03-25T09:04:28;4.00;;;3.70;;
34098;SDS011;20374;49.474;10.944;2024-03-25T09:06:54;6.43;;;3.72;;
34098;SDS011;20374;49.474;10.944;2024-03-25T09:09:19;4.13;;;3.70;;
34098;SDS011;20374;49.474;10.944;2024-03-25T09:12:04;3.93;;;3.63;;
34098;SDS011;20374;49.474;10.944;2024-03-25T09:14:30;4.25;;;3.97;;
34098;SDS011;20374;49.474;10.944;2024-03-25T09:16:59;4.28;;;3.92;;
34098;SDS011;20374;49.474;10.944;2024-03-25T09:19:26;3.97;;;3.78;;
34098;SDS011;20374;49.474;10.944;2024-03-25T09:21:52;3.60;;;3.38;;
34098;SDS011;20374;49.474;10.944;2024-03-25T09:24:17;5.50;;;3.93;;
34098;SDS011;20374;49.474;10.944;2024-03-25T09:26:44;5.20;;;3.70;;
34098;SDS011;20374;49.474;10.944;2024-03-25T09:29:11;3.50;;;3.20;;
34098;SDS011;20374;49.474;10.944;2024-03-25T09:31:38;4.15;;;3.85;;
34098;SDS011;20374;49.474;10.944;2024-03-25T09:34:03;3.40;;;3.10;;
34098;SDS011;20374;49.474;10.944;2024-03-25T09:36:30;3.95;;;3.55;;
34098;SDS011;20374;49.474;10.944;2024-03-25T09:38:56;3.10;;;2.90;;
34098;SDS011;20374;49.474;10.944;2024-03-25T09:41:22;3.90;;;3.60;;
34098;SDS011;20374;49.474;10.944;2024-03-25T09:43:48;4.10;;;3.80;;
34098;SDS011;20374;49.474;10.944;2024-03-25T09:46:19;3.85;;;3.55;;
34098;SDS011;20374;49.474;10.944;2024-03-25T09:48:48;4.03;;;3.63;;
34098;SDS011;20374;49.474;10.944;2024-03-25T09:51:15;3.70;;;3.50;;
34098;SDS011;20374;49.474;10.944;2024-03-25T09:53:41;2.85;;;2.65;;
34098;SDS011;20374;49.474;10.944;2024-03-25T09:56:07;4.03;;;3.72;;
34098;SDS011;20374;49.474;10.944;2024-03-25T09:58:35;3.80;;;3.40;;
34098;SDS011;20374;49.474;10.944;2024-03-25T10:01:01;3.97;;;2.60;;
34098;SDS011;20374;49.474;10.944;2024-03-25T10:03:28;3.85;;;3.47;;
34098;SDS011;20374;49.474;10.944;2024-03-25T10:05:53;3.97;;;3.75;;
34098;SDS011;20374;49.474;10.944;2024-03-25T10:08:20;3.30;;;3.10;;
34098;SDS011;20374;49.474;10.944;2024-03-25T10:10:46;3.15;;;2.95;;
34098;SDS011;20374;49.474;10.944;2024-03-25T10:13:12;4.07;;;3.67;;
34098;SDS011;20374;49.474;10.944;2024-03-25T10:15:38;3.45;;;3.22;;
34098;SDS011;20374;49.474;10.944;2024-03-25T10:18:05;3.47;;;3.20;;
34098;SDS011;20374;49.474;10.944;2024-03-25T10:20:31;3.83;;;3.53;;
34098;SDS011;20374;49.474;10.944;2024-03-25T10:22:57;4.72;;;3.47;;
34098;SDS011;20374;49.474;10.944;2024-03-25T10:25:29;3.10;;;2.90;;
34098;SDS011;20374;49.474;10.944;2024-03-25T10:27:59;2.60;;;2.40;;
34098;SDS011;20374;49.474;10.944;2024-03-25T10:30:26;3.45;;;3.25;;
34098;SDS011;20374;49.474;10.944;2024-03-25T10:32:59;3.22;;;3.03;;
34098;SDS011;20374;49.474;10.944;2024-03-25T10:35:25;3.42;;;3.22;;
34098;SDS011;20374;49.474;10.944;2024-03-25T10:37:53;3.97;;;3.67;;
34098;SDS011;20374;49.474;10.944;2024-03-25T10:40:28;3.55;;;3.35;;
34098;SDS011;20374;49.474;10.944;2024-03-25T10:42:56;3.60;;;3.30;;
34098;SDS011;20374;49.474;10.944;2024-03-25T10:45:49;4.28;;;3.97;;
34098;SDS011;20374;49.474;10.944;2024-03-25T10:48:20;4.30;;;4.00;;
34098;SDS011;20374;49.474;10.944;2024-03-25T10:50:51;4.03;;;3.73;;
34098;SDS011;20374;49.474;10.944;2024-03-25T10:53:20;3.45;;;3.20;;
34098;SDS011;20374;49.474;10.944;2024-03-25T10:55:49;4.05;;;3.75;;
34098;SDS011;20374;49.474;10.944;2024-03-25T10:58:20;4.15;;;3.95;;
34098;SDS011;20374;49.474;10.944;2024-03-25T11:00:51;5.68;;;3.47;;
34098;SDS011;20374;49.474;10.944;2024-03-25T11:03:22;4.10;;;3.80;;
34098;SDS011;20374;49.474;10.944;2024-03-25T11:05:50;4.43;;;4.13;;
34098;SDS011;20374;49.474;10.944;2024-03-25T11:08:17;3.95;;;3.60;;
34098;SDS011;20374;49.474;10.944;2024-03-25T11:10:43;4.43;;;4.10;;
34098;SDS011;20374;49.474;10.944;2024-03-25T11:13:18;3.42;;;3.22;;
34098;SDS011;20374;49.474;10.944;2024-03-25T11:15:46;4.20;;;3.90;;
34098;SDS011;20374;49.474;10.944;2024-03-25T11:18:14;3.08;;;2.88;;
34098;SDS011;20374;49.474;10.944;2024-03-25T11:20:41;4.20;;;3.60;;
34098;SDS011;20374;49.474;10.944;2024-03-25T11:23:11;3.78;;;3.58;;
34098;SDS011;20374;49.474;10.944;2024-03-25T11:25:38;3.55;;;3.35;;
34098;SDS011;20374;49.474;10.944;2024-03-25T11:28:05;4.73;;;4.27;;
34098;SDS011;20374;49.474;10.944;2024-03-25T11:30:32;4.20;;;3.90;;
34098;SDS011;20374;49.474;10.944;2024-03-25T11:33:00;4.53;;;4.22;;
34098;SDS011;20374;49.474;10.944;2024-03-25T11:35:27;4.38;;;4.07;;
34098;SDS011;20374;49.474;10.944;2024-03-25T11:37:53;4.05;;;3.75;;
34098;SDS011;20374;49.474;10.944;2024-03-25T11:40:19;4.33;;;4.00;;
34098;SDS011;20374;49.474;10.944;2024-03-25T11:42:45;4.18;;;3.70;;
34098;SDS011;20374;49.474;10.944;2024-03-25T11:45:16;4.72;;;4.43;;
34098;SDS011;20374;49.474;10.944;2024-03-25T11:47:46;4.03;;;3.80;;
34098;SDS011;20374;49.474;10.944;2024-03-25T11:50:17;4.55;;;4.15;;
34098;SDS011;20374;49.474;10.944;2024-03-25T11:52:45;4.40;;;4.13;;
34098;SDS011;20374;49.474;10.944;2024-03-25T11:55:15;4.03;;;3.55;;
34098;SDS011;20374;49.474;10.944;2024-03-25T11:57:44;4.55;;;4.25;;
34098;SDS011;20374;49.474;10.944;2024-03-25T12:00:10;4.70;;;4.40;;
34098;SDS011;20374;49.474;10.944;2024-03-25T12:02:45;4.28;;;3.97;;
34098;SDS011;20374;49.474;10.944;2024-03-25T12:05:15;4.70;;;4.40;;
34098;SDS011;20374;49.474;10.944;2024-03-25T12:07:41;4.72;;;4.38;;
34098;SDS011;20374;49.474;10.944;2024-03-25T12:10:07;5.38;;;4.90;;
34098;SDS011;20374;49.474;10.944;2024-03-25T12:12:52;4.88;;;4.40;;
34098;SDS011;20374;49.474;10.944;2024-03-25T12:15:22;4.70;;;4.40;;
34098;SDS011;20374;49.474;10.944;2024-03-25T12:17:48;4.10;;;3.80;;
34098;SDS011;20374;49.474;10.944;2024-03-25T12:20:16;4.90;;;4.60;;
34098;SDS011;20374;49.474;10.944;2024-03-25T12:22:43;5.18;;;4.85;;
34098;SDS011;20374;49.474;10.944;2024-03-25T12:25:09;4.65;;;4.35;;
34098;SDS011;20374;49.474;10.944;2024-03-25T12:27:36;4.95;;;4.60;;
34098;SDS011;20374;49.474;10.944;2024-03-25T12:30:06;5.07;;;4.67;;
34098;SDS011;20374;49.474;10.944;2024-03-25T12:35:08;4.88;;;4.47;;
34098;SDS011;20374;49.474;10.944;2024-03-25T12:37:40;5.10;;;4.80;;
34098;SDS011;20374;49.474;10.944;2024-03-25T12:40:09;5.32;;;5.03;;
34098;SDS011;20374;49.474;10.944;2024-03-25T12:42:36;4.87;;;4.57;;
34098;SDS011;20374;49.474;10.944;2024-03-25T12:45:02;4.45;;;4.15;;
34098;SDS011;20374;49.474;10.944;2024-03-25T12:47:29;4.63;;;4.32;;
34098;SDS011;20374;49.474;10.944;2024-03-25T12:49:58;5.00;;;4.60;;
34098;SDS011;20374;49.474;10.944;2024-03-25T12:52:25;4.60;;;4.30;;
34098;SDS011;20374;49.474;10.944;2024-03-25T12:54:51;5.90;;;5.47;;
34098;SDS011;20374;49.474;10.944;2024-03-25T12:57:17;5.05;;;4.75;;
34098;SDS011;20374;49.474;10.944;2024-03-25T12:59:44;5.30;;;5.00;;
34098;SDS011;20374;49.474;10.944;2024-03-25T13:02:11;4.70;;;4.40;;
34098;SDS011;20374;49.474;10.944;2024-03-25T13:04:38;5.57;;;5.27;;
34098;SDS011;20374;49.474;10.944;2024-03-25T13:07:06;5.32;;;5.00;;
34098;SDS011;20374;49.474;10.944;2024-03-25T13:09:32;4.45;;;4.07;;
34098;SDS011;20374;49.474;10.944;2024-03-25T13:11:58;4.95;;;4.55;;
34098;SDS011;20374;49.474;10.944;2024-03-25T13:14:25;5.10;;;4.80;;
34098;SDS011;20374;49.474;10.944;2024-03-25T13:16:51;5.05;;;4.75;;
34098;SDS011;20374;49.474;10.944;2024-03-25T13:19:17;4.78;;;4.38;;
34098;SDS011;20374;49.474;10.944;2024-03-25T13:21:43;5.28;;;4.97;;
34098;SDS011;20374;49.474;10.944;2024-03-25T13:24:09;5.97;;;5.60;;
34098;SDS011;20374;49.474;10.944;2024-03-25T13:26:35;4.68;;;4.38;;
34098;SDS011;20374;49.474;10.944;2024-03-25T13:29:01;5.15;;;4.85;;
34098;SDS011;20374;49.474;10.944;2024-03-25T13:31:27;5.03;;;4.63;;
34098;SDS011;20374;49.474;10.944;2024-03-25T13:33:53;5.10;;;4.80;;
34098;SDS011;20374;49.474;10.944;2024-03-25T13:36:19;5.00;;;4.70;;
34098;SDS011;20374;49.474;10.944;2024-03-25T13:38:45;5.20;;;4.90;;
34098;SDS011;20374;49.474;10.944;2024-03-25T13:41:11;4.78;;;4.47;;
34098;SDS011;20374;49.474;10.944;2024-03-25T13:43:41;4.82;;;4.53;;
34098;SDS011;20374;49.474;10.944;2024-03-25T13:46:08;5.40;;;5.00;;
34098;SDS011;20374;49.474;10.944;2024-03-25T13:48:34;5.13;;;4.82;;
34098;SDS011;20374;49.474;10.944;2024-03-25T13:51:00;4.93;;;4.63;;
34098;SDS011;20374;49.474;10.944;2024-03-25T13:53:26;4.70;;;4.40;;
34098;SDS011;20374;49.474;10.944;2024-03-25T13:55:52;4.63;;;4.32;;
34098;SDS011;20374;49.474;10.944;2024-03-25T13:58:17;4.45;;;4.15;;
34098;SDS011;20374;49.474;10.944;2024-03-25T14:00:43;4.90;;;4.60;;
34098;SDS011;20374;49.474;10.944;2024-03-25T14:03:09;4.90;;;4.60;;
34098;SDS011;20374;49.474;10.944;2024-03-25T14:05:35;5.07;;;4.77;;
34098;SDS011;20374;49.474;10.944;2024-03-25T14:08:01;5.13;;;4.82;;
34098;SDS011;20374;49.474;10.944;2024-03-25T14:10:27;4.88;;;4.57;;
34098;SDS011;20374;49.474;10.944;2024-03-25T14:12:53;5.30;;;4.90;;
34098;SDS011;20374;49.474;10.944;2024-03-25T14:15:19;4.90;;;4.60;;
34098;SDS011;20374;49.474;10.944;2024-03-25T14:17:45;4.50;;;4.20;;
34098;SDS011;20374;49.474;10.944;2024-03-25T14:20:11;4.10;;;3.80;;
34098;SDS011;20374;49.474;10.944;2024-03-25T14:22:37;4.93;;;4.63;;
34098;SDS011;20374;49.474;10.944;2024-03-25T14:25:03;4.88;;;4.57;;
34098;SDS011;20374;49.474;10.944;2024-03-25T14:27:29;5.10;;;4.70;;
34098;SDS011;20374;49.474;10.944;2024-03-25T14:29:55;5.13;;;4.82;;
34098;SDS011;20374;49.474;10.944;2024-03-25T14:32:22;5.50;;;5.10;;
34098;SDS011;20374;49.474;10.944;2024-03-25T14:34:48;5.05;;;4.65;;
34098;SDS011;20374;49.474;10.944;2024-03-25T14:37:14;4.70;;;4.40;;
34098;SDS011;20374;49.474;10.944;2024-03-25T14:39:40;5.35;;;4.85;;